Pagrindinis puslapis
METAR-TAF:

METAR-TAF

Oro uostai :

Vamdrup

Koldingas, Danija

platuma: 55-26N, ilguma: 009-20E, Aukštis: 44 m

Dabartinis oras

Ataskaita buvo paskelbta 11 minutes, ne 22:50 UTC
Vėjas 11 kt iš Pietų/Pietvakarių
Temperatūra 14°C
Drėgmė 100%
Slėgis 1009 hPa

METAR: EKVD 142250Z AUTO 20011KT //// ///////// 14/14 Q1009

Laikas: 01:01 (23:01 UTC)

Prognozė

Ataskaita buvo paskelbta 15 valandos ir 0 minutes, ne 08:01 UTC
Prognozė galioja nuo 14 metu 09 UTC su 14 metu 15 UTC
Vėjas 10 kt iš Pietų/Pietvakarių
Matomumas 10 km arba daugiau
Išsisklaidę debesys ne aukštis 3000 ft
Laikinai
nuo 14 metu 09 UTC su 14 metu 15 UTC
Vėjas 15 kt iš Pietų/Pietvakarių su gūsio iki 25 kt
Matomumas: 4000 m
Išsisklaidę debesys ne aukštis 2000 ft, Liūtiniai kamuoliniai debesys.
lietus,

TAF: EKVD 140801Z 1409/1415 20010KT 9999 SCT030 TEMPO 1409/1415 20015G25KT 4000 SHRA SCT020CB

Orai ataskaitas ir orų prognozės (METAR, TAF).

turimą stotys yra geltonos ir raudonos taškus žemėlapyje.

Perkelti pele per norėdami pamatyti stoties vardą.

Tada spustelėkite, norėdami matyti oro stebėjimo ir prognozės.

Norėdami pakeisti žemėlapį: spustelėkite ant žalios mygtukų su juodo kryžiaus žemyn,; žalią mygtuką su brūkšneliu, jei norite nutolinti; arba žalių rodyklių gretimoms žemėlapius.


METAR-TAF: